Latest Coastal Weather Observations for Albion Park

IDN60701

Issued at 4:42 pm EDT Thursday 25 February 2021 (issued every 10 minutes, with the page automatically refreshed every 10 minutes)

About coastal observations | Map of coastal stations | Coastal observations for NSW | Marine services | Other Formats
Station Details ID: 068241 Name: SHELLHARBOUR AIRPORT Lat: -34.56 Lon: 150.79 Height: 8.0 m
Data from the previous 72 hours. | See also: Recent months at Albion Park
Date/Time
EDT
Wind Sea
Height
m
Swell Vis
km
Cloud Weather Temp
°C
Press
MSL
hPa
Rain since
9am
mm
Dir  Spd
kts
Gust
kts
Height
m
Period
s
Dir
25/04:30pm SW 2 4 - - - - 10 Clear - 21.6 1008.2 6.2
25/04:00pm NNE 2 6 - - - - 10 - - 21.4 1008.6 6.2
25/03:30pm NNE 9 14 - - - - 10 - - 21.4 1009.1 6.2
25/03:00pm N 5 8 - - - - 10 Mostly cloudy Thunderstorm 21.1 1009.2 6.2
25/02:30pm NNW 5 8 - - - - 10 Partly cloudy - 19.7 1010.1 6.2
25/02:00pm W 7 9 - - - - 10 Partly cloudy - 19.8 1010.6 5.6
25/01:30pm SSW 8 10 - - - - 8 Partly cloudy - 19.9 1010.6 5.6
25/01:00pm SW 7 9 - - - - 10 Cloudy - 20.6 1011.5 4.4
25/12:38pm N 5 6 - - - - 10 Partly cloudy - 20.2 1011.2 4.4
25/12:30pm NNE 5 7 - - - - 10 Partly cloudy - 19.8 1011.5 4.4
25/12:19pm NNE 7 10 - - - - 5 Partly cloudy - 20.0 1011.6 4.0
25/12:00pm ENE 8 10 - - - - 10 Mostly cloudy Thunderstorm 20.0 1011.7 2.8
25/11:55am E 5 10 - - - - 10 Partly cloudy - 20.1 1011.6 2.8
25/11:49am SSE 3 6 - - - - 10 Partly cloudy - 20.0 1011.9 2.8
25/11:33am WNW 7 8 - - - - 4 Partly cloudy - 20.8 1012.5 1.0
25/11:30am WNW 6 8 - - - - 10 Partly cloudy - 20.9 1012.8 0.0
25/11:24am WSW 7 9 - - - - 10 Partly cloudy - 20.9 1012.4 0.0
25/11:00am WSW 3 4 - - - - 10 Partly cloudy - 21.6 1011.9 0.0
25/10:30am W 1 4 - - - - 10 Partly cloudy - 21.9 1011.6 0.0
25/10:00am WNW 3 5 - - - - 10 Partly cloudy - 22.0 1011.6 0.0
25/09:30am WNW 3 5 - - - - 10 Partly cloudy - 21.8 1011.9 0.0
25/09:00am SW 3 5 - - - - 10 - - 21.0 1011.2 2.4
25/08:30am CALM 0 0 - - - - 10 - - 19.8 1011.4 2.4
25/08:00am WSW 4 4 - - - - 10 - - 18.8 1011.3 2.4
25/07:30am S 4 5 - - - - 10 Partly cloudy - 17.6 1011.0 2.4
25/07:00am WSW 3 4 - - - - 10 Partly cloudy - 16.7 1011.0 2.4
25/06:30am W 2 3 - - - - 10 - - 16.5 1010.8 2.4
25/06:00am W 4 5 - - - - 10 Partly cloudy - 16.9 1010.8 2.4
25/05:30am WNW 5 7 - - - - 10 Partly cloudy - 17.0 1011.0 2.4
25/05:00am WNW 2 4 - - - - 10 Partly cloudy - 18.2 1011.1 2.4
25/04:56am NW 3 4 - - - - 10 Partly cloudy - 18.3 1011.1 2.4
25/04:30am N 1 3 - - - - 10 Cloudy - 18.8 1011.2 2.4
25/04:21am NNW 3 7 - - - - 10 Cloudy - 18.8 1011.4 2.4
25/04:00am CALM 0 0 - - - - 10 Partly cloudy - 18.6 1011.6 2.4
25/03:30am CALM 0 4 - - - - 10 Partly cloudy - 18.3 1011.8 2.4
25/03:00am CALM 0 0 - - - - 10 Cloudy - 18.0 1012.2 2.4
25/02:30am W 5 5 - - - - 10 Partly cloudy - 17.6 1012.4 2.4
25/02:00am W 5 6 - - - - 10 Cloudy - 18.0 1013.1 2.4
25/01:30am CALM 0 0 - - - - 10 Partly cloudy - 18.1 1013.9 2.4
25/01:00am W 3 5 - - - - 10 Partly cloudy - 18.1 1014.3 2.4
25/12:30am WSW 5 7 - - - - 10 Partly cloudy - 18.0 1014.6 2.2
25/12:00am WSW 4 4 - - - - 10 Cloudy - 18.2 1014.7 2.2
 
Date/Time
EDT
Wind Sea
Height
m
Swell Vis
km
Cloud Weather Temp
°C
Press
MSL
hPa
Rain since
9am
mm
Dir  Spd
kts
Gust
kts
Height
m
Period
s
Dir
24/11:57pm WSW 3 4 - - - - 10 Partly cloudy - 18.2 1014.8 2.2
24/11:30pm CALM 0 0 - - - - 10 Cloudy - 18.2 1015.2 2.2
24/11:16pm CALM 0 0 - - - - 10 Cloudy - 18.1 1015.3 2.2
24/11:00pm CALM 0 0 - - - - 10 Partly cloudy - 17.9 1015.4 2.2
24/10:30pm W 4 6 - - - - 10 Partly cloudy - 18.3 1015.6 2.2
24/10:00pm WSW 3 3 - - - - 10 Partly cloudy - 18.3 1015.7 2.2
24/09:30pm W 3 5 - - - - 10 Partly cloudy - 18.8 1016.0 2.2
24/09:00pm CALM 0 4 - - - - 10 Mostly clear - 19.0 1015.6 2.2
24/08:30pm NW 2 4 - - - - 10 Cloudy - 19.6 1015.7 2.2
24/08:00pm W 4 5 - - - - 10 Partly cloudy - 19.9 1015.8 2.2
24/07:30pm SW 3 6 - - - - 10 Partly cloudy - 20.2 1015.6 2.2
24/07:00pm NW 4 5 - - - - 10 Partly cloudy - 20.5 1015.6 2.2
24/06:30pm WNW 4 5 - - - - 10 Partly cloudy - 20.3 1015.7 2.2
24/06:00pm W 5 6 - - - - 10 Cloudy - 20.4 1015.8 2.2
24/05:41pm W 6 7 - - - - 10 Partly cloudy - 20.3 1015.9 2.2
24/05:30pm W 6 8 - - - - 10 Partly cloudy - 20.4 1015.9 2.2
24/05:21pm WSW 6 7 - - - - 10 Partly cloudy - 20.6 1015.9 2.2
24/05:00pm SW 4 6 - - - - 10 Cloudy - 20.5 1015.9 2.2
24/04:30pm W 4 7 - - - - 10 Partly cloudy - 20.2 1016.2 2.2
24/04:00pm W 4 6 - - - - 10 Partly cloudy - 19.9 1016.2 2.2
24/03:30pm WSW 7 9 - - - - 10 Partly cloudy - 20.4 1016.5 2.2
24/03:00pm SW 6 8 - - - - 10 Cloudy Recent precip. 20.1 1017.0 2.2
24/02:31pm SSE 5 6 - - - - 10 Partly cloudy - 19.1 1017.7 2.2
24/02:30pm SSE 5 6 - - - - 10 Partly cloudy - 18.9 1017.7 2.2
24/02:07pm SE 5 8 - - - - 5 Partly cloudy - 20.0 1017.9 1.2
24/02:00pm SE 4 7 - - - - 10 Partly cloudy - 21.1 1017.8 0.6
24/01:30pm S 7 10 - - - - 10 Partly cloudy - 21.6 1018.0 0.6
24/01:06pm SSW 7 12 - - - - 10 Partly cloudy - 21.4 1018.2 0.6
24/01:00pm S 8 11 - - - - 10 Partly cloudy - 21.3 1018.3 0.6
24/12:56pm SSW 7 11 - - - - 10 Partly cloudy - 21.4 1018.4 0.6
24/12:30pm SW 5 8 - - - - 10 Partly cloudy - 20.3 1018.9 0.6
24/12:00pm WSW 4 6 - - - - 10 Cloudy Recent precip. 18.7 1019.2 0.6
24/11:56am WSW 4 6 - - - - 10 Partly cloudy - 18.8 1019.3 0.6
24/11:39am WNW 5 8 - - - - 5 Partly cloudy - 18.9 1019.6 0.4
24/11:30am W 8 10 - - - - 10 Partly cloudy - 19.3 1019.4 0.0
24/11:00am W 9 11 - - - - 10 Partly cloudy - 19.3 1019.4 0.0
24/10:30am WSW 6 8 - - - - 10 Partly cloudy - 19.2 1019.4 0.0
24/10:00am S 9 15 - - - - 10 Partly cloudy - 18.6 1019.3 0.0
24/09:30am S 6 11 - - - - 10 Partly cloudy - 19.4 1019.2 0.0
24/09:00am S 4 6 - - - - 10 Mostly cloudy - 18.6 1019.0 0.2
24/08:30am SW 4 6 - - - - 10 Partly cloudy - 17.6 1018.9 0.2
24/08:00am WSW 4 5 - - - - 10 Partly cloudy - 16.8 1019.0 0.2
24/07:42am SSW 5 7 - - - - 10 Partly cloudy - 16.3 1019.0 0.2
24/07:30am SSW 6 9 - - - - 5 Partly cloudy - 16.2 1018.8 0.2
24/07:24am SSW 6 9 - - - - 5 Partly cloudy - 16.4 1018.8 0.2
24/07:14am SSW 7 9 - - - - 10 Partly cloudy - 16.6 1018.7 0.2
24/07:00am W 6 9 - - - - 10 Partly cloudy - 16.5 1018.5 0.2
24/06:54am W 5 7 - - - - 10 Partly cloudy - 16.7 1018.5 0.2
24/06:43am SSW 1 5 - - - - 5 Partly cloudy - 17.1 1018.3 0.2
24/06:37am CALM 0 4 - - - - 10 Partly cloudy - 17.2 1018.2 0.0
24/06:30am S 5 10 - - - - 10 Partly cloudy - 17.4 1017.9 0.0
24/06:00am SW 6 9 - - - - 10 Cloudy - 17.4 1017.3 0.0
24/05:30am SW 7 9 - - - - 10 Partly cloudy - 17.5 1017.2 0.0
24/05:00am SSW 6 8 - - - - 10 Partly cloudy - 17.5 1017.0 0.0
24/04:30am SSW 7 9 - - - - 10 Partly cloudy - 17.8 1017.1 0.0
24/04:00am SSW 8 12 - - - - 10 Cloudy - 17.7 1017.1 0.0
24/03:30am S 7 12 - - - - 10 Partly cloudy - 17.2 1017.3 0.0
24/03:00am S 5 8 - - - - 10 Partly cloudy - 16.6 1017.3 0.0
24/02:30am S 5 8 - - - - 10 - - 17.1 1017.4 0.0
24/02:00am S 7 10 - - - - 10 Partly cloudy - 17.3 1017.5 0.0
24/01:30am SSW 10 15 - - - - 10 Partly cloudy - 17.4 1018.0 0.0
24/01:00am S 7 9 - - - - 10 Partly cloudy - 17.6 1018.3 0.0
24/12:30am S 7 9 - - - - 10 Partly cloudy - 18.1 1018.6 0.0
24/12:00am SSW 8 11 - - - - 10 Cloudy - 18.3 1018.5 0.0
 
Date/Time
EDT
Wind Sea
Height
m
Swell Vis
km
Cloud Weather Temp
°C
Press
MSL
hPa
Rain since
9am
mm
Dir  Spd
kts
Gust
kts
Height
m
Period
s
Dir
23/11:30pm S 4 7 - - - - 10 Partly cloudy - 17.6 1018.6 0.0
23/11:00pm S 4 5 - - - - 10 Partly cloudy - 17.4 1018.5 0.0
23/10:30pm S 9 13 - - - - 10 Partly cloudy - 17.9 1018.2 0.0
23/10:00pm SSE 6 8 - - - - 10 Partly cloudy - 18.3 1018.3 0.0
23/09:30pm S 7 12 - - - - 10 Partly cloudy - 18.4 1018.1 0.0
23/09:00pm S 9 13 - - - - 10 Cloudy - 18.7 1017.7 0.0
23/08:30pm SSW 7 12 - - - - 10 Partly cloudy - 18.7 1017.3 0.0
23/08:00pm S 10 18 - - - - 10 Partly cloudy - 18.8 1016.9 0.0
23/07:30pm S 10 16 - - - - 10 Partly cloudy - 18.8 1016.5 0.0
23/07:00pm SSE 10 16 - - - - 10 Partly cloudy - 19.2 1016.0 0.0
23/06:30pm S 11 20 - - - - 10 Partly cloudy - 19.6 1015.6 0.0
23/06:00pm S 13 19 - - - - 10 Cloudy - 19.7 1015.4 0.0
23/05:30pm S 13 20 - - - - 10 Cloudy - 20.1 1015.0 0.0
23/05:00pm S 11 15 - - - - 10 Cloudy - 20.4 1014.8 0.0
23/04:30pm S 11 15 - - - - 10 Cloudy - 20.1 1014.8 0.0
23/04:00pm SSE 11 16 - - - - 10 Cloudy - 20.3 1014.7 0.0
23/03:30pm S 11 17 - - - - 10 Cloudy - 21.0 1014.7 0.0
23/03:00pm S 8 12 - - - - 10 Mostly cloudy - 21.4 1014.6 0.0
23/02:30pm SSE 13 19 - - - - 10 Cloudy - 20.7 1014.6 0.0
23/02:00pm S 13 19 - - - - 10 Partly cloudy - 21.8 1014.5 0.0
23/01:30pm S 12 17 - - - - 10 Cloudy - 21.0 1014.5 0.0
23/01:00pm S 12 17 - - - - 10 Cloudy - 20.9 1014.7 0.0
23/12:30pm S 9 15 - - - - 10 Cloudy - 19.5 1014.8 0.0
23/12:00pm S 9 14 - - - - 10 Cloudy - 19.0 1014.9 0.0
23/11:30am S 13 19 - - - - 10 Cloudy - 18.8 1014.7 0.0
23/11:00am S 10 16 - - - - 10 Partly cloudy - 18.7 1014.5 0.0
23/10:30am S 10 18 - - - - 10 Cloudy - 18.9 1014.3 0.0
23/10:00am S 10 16 - - - - 10 Cloudy - 18.6 1014.0 0.0
23/09:30am S 9 14 - - - - 10 Partly cloudy - 18.4 1013.8 0.0
23/09:00am SSW 9 16 - - - - 10 Cloudy - 18.5 1013.5 0.0
23/08:30am SSW 8 14 - - - - 10 Cloudy - 18.3 1013.2 0.0
23/08:00am SSW 10 15 - - - - 10 Cloudy - 18.4 1012.7 0.0
23/07:30am SSW 8 12 - - - - 10 Cloudy - 18.5 1012.3 0.0
23/07:00am SSW 8 12 - - - - 10 Cloudy - 18.8 1011.9 0.0
23/06:30am SSW 7 11 - - - - 10 Cloudy - 18.9 1011.5 0.0
23/06:00am S 5 9 - - - - 10 Mostly cloudy - 18.8 1011.2 0.0
23/05:30am SW 6 12 - - - - 10 Partly cloudy - 18.8 1010.8 0.0
23/05:00am SW 6 9 - - - - 10 Partly cloudy - 19.0 1010.4 0.0
23/04:30am SSW 5 8 - - - - 10 Partly cloudy - 19.0 1010.2 0.0
23/04:00am SSW 9 13 - - - - 10 Partly cloudy - 19.2 1010.3 0.0
23/03:30am SSW 8 13 - - - - 10 Cloudy - 19.3 1010.1 0.0
23/03:00am SW 11 17 - - - - 10 Cloudy - 19.2 1010.2 0.0
23/02:30am SSW 11 19 - - - - 10 Partly cloudy - 19.3 1010.1 0.0
23/02:00am SSW 11 17 - - - - 10 Partly cloudy - 19.7 1010.2 0.0
23/01:30am SSW 11 16 - - - - 10 Partly cloudy - 19.9 1010.4 0.0
23/01:00am S 8 12 - - - - 10 Cloudy - 20.0 1010.4 0.0
23/12:30am S 9 13 - - - - 10 Cloudy - 20.1 1010.5 0.0
23/12:00am S 8 15 - - - - 10 Cloudy - 20.1 1010.6 0.0
 
Date/Time
EDT
Wind Sea
Height
m
Swell Vis
km
Cloud Weather Temp
°C
Press
MSL
hPa
Rain since
9am
mm
Dir  Spd
kts
Gust
kts
Height
m
Period
s
Dir
22/11:30pm S 8 18 - - - - 10 Cloudy - 20.1 1010.6 0.0
22/11:00pm S 8 14 - - - - 10 Cloudy - 20.0 1010.9 0.0
22/10:38pm SSW 8 14 - - - - 10 Partly cloudy - 19.5 1010.9 0.0
22/10:30pm SSE 5 9 - - - - 10 Partly cloudy - 19.3 1011.0 0.0
22/10:00pm SSW 9 14 - - - - 10 Partly cloudy - 19.6 1010.9 0.0
22/09:30pm S 7 13 - - - - 10 Partly cloudy - 19.3 1010.7 0.0
22/09:26pm S 8 12 - - - - 10 Partly cloudy - 19.3 1010.7 0.0
22/09:20pm S 10 16 - - - - 10 Partly cloudy - 19.3 1010.5 0.0
22/09:00pm S 10 17 - - - - 10 Cloudy - 19.5 1010.2 0.0
22/08:30pm S 9 15 - - - - 10 Partly cloudy - 20.0 1009.8 0.0
22/08:00pm S 9 16 - - - - 10 Partly cloudy - 20.1 1009.2 0.0
22/07:30pm S 10 14 - - - - 10 Partly cloudy - 20.6 1008.6 0.0
22/07:00pm S 9 14 - - - - 10 Partly cloudy - 21.1 1008.0 0.0
22/06:38pm SSW 10 15 - - - - 10 Partly cloudy - 21.7 1007.7 0.0
22/06:30pm S 10 17 - - - - 10 Partly cloudy - 21.7 1007.5 0.0
22/06:00pm S 12 19 - - - - 10 Cloudy - 21.9 1006.9 0.0
22/05:30pm S 12 17 - - - - 10 Partly cloudy - 22.4 1006.6 0.0
22/05:02pm S 10 15 - - - - 10 Partly cloudy - 21.8 1006.7 0.0
22/05:00pm S 10 15 - - - - 10 Partly cloudy - 21.8 1006.7 0.0

Other formats

Comma delimited format used in spreadsheet applications
http://www.bom.gov.au/fwo/IDN60701/IDN60701.95748.axf

JavaScript Object Notation format (JSON) in row-major order
http://www.bom.gov.au/fwo/IDN60701/IDN60701.95748.json

Data quality

Most of these data are generated automatically and are frequently updated. Quality checks on data are not normally performed. It is possible for incorrect values to appear. Refer to information at About Latest Weather Observations and please check the disclaimer before using these data.